sensor_id;sensor_type;location;lat;lon;timestamp;temperature;humidity
26952;DHT22;14507;52.418;13.398;2023-03-23T00:01:24;12.20;99.90
26952;DHT22;14507;52.418;13.398;2023-03-23T00:03:53;12.20;99.90
26952;DHT22;14507;52.418;13.398;2023-03-23T00:06:20;12.10;99.90
26952;DHT22;14507;52.418;13.398;2023-03-23T00:08:50;12.10;99.90
26952;DHT22;14507;52.418;13.398;2023-03-23T00:11:23;12.10;99.90
26952;DHT22;14507;52.418;13.398;2023-03-23T00:13:50;12.00;99.90
26952;DHT22;14507;52.418;13.398;2023-03-23T00:16:18;12.00;99.90
26952;DHT22;14507;52.418;13.398;2023-03-23T00:18:49;12.00;99.90
26952;DHT22;14507;52.418;13.398;2023-03-23T00:21:22;11.90;99.90
26952;DHT22;14507;52.418;13.398;2023-03-23T00:24:02;11.90;99.90
26952;DHT22;14507;52.418;13.398;2023-03-23T00:26:28;11.90;99.90
26952;DHT22;14507;52.418;13.398;2023-03-23T00:28:55;11.90;99.90
26952;DHT22;14507;52.418;13.398;2023-03-23T00:31:21;11.80;99.90
26952;DHT22;14507;52.418;13.398;2023-03-23T00:33:47;11.70;99.90
26952;DHT22;14507;52.418;13.398;2023-03-23T00:36:13;11.70;99.90
26952;DHT22;14507;52.418;13.398;2023-03-23T00:38:40;11.80;99.90
26952;DHT22;14507;52.418;13.398;2023-03-23T00:41:07;11.70;99.90
26952;DHT22;14507;52.418;13.398;2023-03-23T00:43:33;11.70;99.90
26952;DHT22;14507;52.418;13.398;2023-03-23T00:46:03;11.60;99.90
26952;DHT22;14507;52.418;13.398;2023-03-23T00:48:34;11.60;99.90
26952;DHT22;14507;52.418;13.398;2023-03-23T00:51:01;11.60;99.90
26952;DHT22;14507;52.418;13.398;2023-03-23T00:53:31;11.60;99.90
26952;DHT22;14507;52.418;13.398;2023-03-23T00:55:57;11.60;99.90
26952;DHT22;14507;52.418;13.398;2023-03-23T00:58:23;11.60;99.90
26952;DHT22;14507;52.418;13.398;2023-03-23T01:00:48;11.50;99.90
26952;DHT22;14507;52.418;13.398;2023-03-23T01:03:14;11.50;99.90
26952;DHT22;14507;52.418;13.398;2023-03-23T01:05:44;11.50;99.90
26952;DHT22;14507;52.418;13.398;2023-03-23T01:08:13;11.50;99.90
26952;DHT22;14507;52.418;13.398;2023-03-23T01:10:39;11.50;99.90
26952;DHT22;14507;52.418;13.398;2023-03-23T01:13:07;11.40;99.90
26952;DHT22;14507;52.418;13.398;2023-03-23T01:15:33;11.40;99.90
26952;DHT22;14507;52.418;13.398;2023-03-23T01:17:58;11.30;99.90
26952;DHT22;14507;52.418;13.398;2023-03-23T01:20:25;11.30;99.90
26952;DHT22;14507;52.418;13.398;2023-03-23T01:22:52;11.30;99.90
26952;DHT22;14507;52.418;13.398;2023-03-23T01:25:18;11.30;99.90
26952;DHT22;14507;52.418;13.398;2023-03-23T01:27:44;11.30;99.90
26952;DHT22;14507;52.418;13.398;2023-03-23T01:30:11;11.30;99.90
26952;DHT22;14507;52.418;13.398;2023-03-23T01:32:38;11.30;99.90
26952;DHT22;14507;52.418;13.398;2023-03-23T01:35:04;11.20;99.90
26952;DHT22;14507;52.418;13.398;2023-03-23T01:37:30;11.20;99.90
26952;DHT22;14507;52.418;13.398;2023-03-23T01:39:56;11.20;99.90
26952;DHT22;14507;52.418;13.398;2023-03-23T01:42:30;11.20;99.90
26952;DHT22;14507;52.418;13.398;2023-03-23T01:47:40;11.10;99.90
26952;DHT22;14507;52.418;13.398;2023-03-23T01:50:06;11.10;99.90
26952;DHT22;14507;52.418;13.398;2023-03-23T01:52:31;11.10;99.90
26952;DHT22;14507;52.418;13.398;2023-03-23T01:54:59;11.10;99.90
26952;DHT22;14507;52.418;13.398;2023-03-23T01:57:26;11.00;99.90
26952;DHT22;14507;52.418;13.398;2023-03-23T01:59:53;11.00;99.90
26952;DHT22;14507;52.418;13.398;2023-03-23T02:02:22;11.00;99.90
26952;DHT22;14507;52.418;13.398;2023-03-23T02:04:48;11.00;99.90
26952;DHT22;14507;52.418;13.398;2023-03-23T02:07:15;11.00;99.90
26952;DHT22;14507;52.418;13.398;2023-03-23T02:09:42;11.00;99.90
26952;DHT22;14507;52.418;13.398;2023-03-23T02:12:08;11.00;99.90
26952;DHT22;14507;52.418;13.398;2023-03-23T02:14:34;11.00;99.90
26952;DHT22;14507;52.418;13.398;2023-03-23T02:17:20;11.00;99.90
26952;DHT22;14507;52.418;13.398;2023-03-23T02:20:08;11.00;99.90
26952;DHT22;14507;52.418;13.398;2023-03-23T02:22:51;11.00;99.90
26952;DHT22;14507;52.418;13.398;2023-03-23T02:25:55;11.00;99.90
26952;DHT22;14507;52.418;13.398;2023-03-23T02:39:44;11.00;99.90
26952;DHT22;14507;52.418;13.398;2023-03-23T02:42:15;11.00;99.90
26952;DHT22;14507;52.418;13.398;2023-03-23T02:44:44;11.00;99.90
26952;DHT22;14507;52.418;13.398;2023-03-23T02:47:18;11.00;99.90
26952;DHT22;14507;52.418;13.398;2023-03-23T02:49:48;11.10;99.90
26952;DHT22;14507;52.418;13.398;2023-03-23T02:52:19;11.10;99.90
26952;DHT22;14507;52.418;13.398;2023-03-23T02:54:48;11.10;99.90
26952;DHT22;14507;52.418;13.398;2023-03-23T02:57:14;11.20;99.90
26952;DHT22;14507;52.418;13.398;2023-03-23T02:59:40;11.20;99.90
26952;DHT22;14507;52.418;13.398;2023-03-23T03:02:16;11.20;99.90
26952;DHT22;14507;52.418;13.398;2023-03-23T03:04:51;11.20;99.90
26952;DHT22;14507;52.418;13.398;2023-03-23T03:10:24;11.30;99.90
26952;DHT22;14507;52.418;13.398;2023-03-23T03:18:05;11.40;99.90
26952;DHT22;14507;52.418;13.398;2023-03-23T03:20:33;11.40;99.90
26952;DHT22;14507;52.418;13.398;2023-03-23T03:23:00;11.40;99.90
26952;DHT22;14507;52.418;13.398;2023-03-23T03:25:27;11.40;99.90
26952;DHT22;14507;52.418;13.398;2023-03-23T03:27:54;11.40;99.90
26952;DHT22;14507;52.418;13.398;2023-03-23T03:30:25;11.50;99.90
26952;DHT22;14507;52.418;13.398;2023-03-23T03:32:52;11.50;99.90
26952;DHT22;14507;52.418;13.398;2023-03-23T03:35:24;11.50;99.90
26952;DHT22;14507;52.418;13.398;2023-03-23T03:37:50;11.50;99.90
26952;DHT22;14507;52.418;13.398;2023-03-23T03:40:18;11.50;99.90
26952;DHT22;14507;52.418;13.398;2023-03-23T03:42:45;11.50;99.90
26952;DHT22;14507;52.418;13.398;2023-03-23T03:45:17;11.50;99.90
26952;DHT22;14507;52.418;13.398;2023-03-23T03:47:43;11.50;99.90
26952;DHT22;14507;52.418;13.398;2023-03-23T03:50:10;11.40;99.90
26952;DHT22;14507;52.418;13.398;2023-03-23T03:52:36;11.50;99.90
26952;DHT22;14507;52.418;13.398;2023-03-23T03:55:04;11.50;99.90
26952;DHT22;14507;52.418;13.398;2023-03-23T03:57:30;11.40;99.90
26952;DHT22;14507;52.418;13.398;2023-03-23T03:59:56;11.40;99.90
26952;DHT22;14507;52.418;13.398;2023-03-23T04:02:21;11.40;99.90
26952;DHT22;14507;52.418;13.398;2023-03-23T04:04:48;11.40;99.90
26952;DHT22;14507;52.418;13.398;2023-03-23T04:07:14;11.40;99.90
26952;DHT22;14507;52.418;13.398;2023-03-23T04:09:45;11.40;99.90
26952;DHT22;14507;52.418;13.398;2023-03-23T04:12:14;11.40;99.90
26952;DHT22;14507;52.418;13.398;2023-03-23T04:14:40;11.40;99.90
26952;DHT22;14507;52.418;13.398;2023-03-23T04:17:06;11.50;99.90
26952;DHT22;14507;52.418;13.398;2023-03-23T04:19:35;11.50;99.90
26952;DHT22;14507;52.418;13.398;2023-03-23T04:22:03;11.40;99.90
26952;DHT22;14507;52.418;13.398;2023-03-23T04:24:29;11.40;99.90
26952;DHT22;14507;52.418;13.398;2023-03-23T04:26:57;11.40;99.90
26952;DHT22;14507;52.418;13.398;2023-03-23T04:29:23;11.40;99.90
26952;DHT22;14507;52.418;13.398;2023-03-23T04:31:48;11.40;99.90
26952;DHT22;14507;52.418;13.398;2023-03-23T04:34:16;11.40;99.90
26952;DHT22;14507;52.418;13.398;2023-03-23T04:36:42;11.40;99.90
26952;DHT22;14507;52.418;13.398;2023-03-23T04:39:08;11.30;99.90
26952;DHT22;14507;52.418;13.398;2023-03-23T04:41:38;11.30;99.90
26952;DHT22;14507;52.418;13.398;2023-03-23T04:44:04;11.40;99.90
26952;DHT22;14507;52.418;13.398;2023-03-23T04:46:30;11.40;99.90
26952;DHT22;14507;52.418;13.398;2023-03-23T04:48:57;11.30;99.90
26952;DHT22;14507;52.418;13.398;2023-03-23T04:51:27;11.30;99.90
26952;DHT22;14507;52.418;13.398;2023-03-23T04:53:53;11.30;99.90
26952;DHT22;14507;52.418;13.398;2023-03-23T04:56:19;11.30;99.90
26952;DHT22;14507;52.418;13.398;2023-03-23T04:58:46;11.40;99.90
26952;DHT22;14507;52.418;13.398;2023-03-23T05:01:12;11.30;99.90
26952;DHT22;14507;52.418;13.398;2023-03-23T05:03:43;11.30;99.90
26952;DHT22;14507;52.418;13.398;2023-03-23T05:06:09;11.40;99.90
26952;DHT22;14507;52.418;13.398;2023-03-23T05:08:35;11.40;99.90
26952;DHT22;14507;52.418;13.398;2023-03-23T05:11:04;11.40;99.90
26952;DHT22;14507;52.418;13.398;2023-03-23T05:13:31;11.40;99.90
26952;DHT22;14507;52.418;13.398;2023-03-23T05:15:57;11.40;99.90
26952;DHT22;14507;52.418;13.398;2023-03-23T05:18:22;11.30;99.90
26952;DHT22;14507;52.418;13.398;2023-03-23T05:20:48;11.30;99.90
26952;DHT22;14507;52.418;13.398;2023-03-23T05:23:15;11.30;99.90
26952;DHT22;14507;52.418;13.398;2023-03-23T05:25:40;11.40;99.90
26952;DHT22;14507;52.418;13.398;2023-03-23T05:28:08;11.40;99.90
26952;DHT22;14507;52.418;13.398;2023-03-23T05:30:34;11.30;99.90
26952;DHT22;14507;52.418;13.398;2023-03-23T05:33:01;11.40;99.90
26952;DHT22;14507;52.418;13.398;2023-03-23T05:35:26;11.40;99.90
26952;DHT22;14507;52.418;13.398;2023-03-23T05:37:52;11.40;99.90
26952;DHT22;14507;52.418;13.398;2023-03-23T05:40:19;11.40;99.90
26952;DHT22;14507;52.418;13.398;2023-03-23T05:42:45;11.50;99.90
26952;DHT22;14507;52.418;13.398;2023-03-23T05:45:12;11.40;99.90
26952;DHT22;14507;52.418;13.398;2023-03-23T05:47:39;11.40;99.90
26952;DHT22;14507;52.418;13.398;2023-03-23T05:50:07;11.40;99.90
26952;DHT22;14507;52.418;13.398;2023-03-23T05:52:35;11.40;99.90
26952;DHT22;14507;52.418;13.398;2023-03-23T05:55:02;11.40;99.90
26952;DHT22;14507;52.418;13.398;2023-03-23T05:57:29;11.40;99.90
26952;DHT22;14507;52.418;13.398;2023-03-23T05:59:55;11.30;99.90
26952;DHT22;14507;52.418;13.398;2023-03-23T06:02:21;11.40;99.90
26952;DHT22;14507;52.418;13.398;2023-03-23T06:04:48;11.30;99.90
26952;DHT22;14507;52.418;13.398;2023-03-23T06:07:14;11.40;99.90
26952;DHT22;14507;52.418;13.398;2023-03-23T06:09:41;11.40;99.90
26952;DHT22;14507;52.418;13.398;2023-03-23T06:12:08;11.40;99.90
26952;DHT22;14507;52.418;13.398;2023-03-23T06:14:35;11.30;99.90
26952;DHT22;14507;52.418;13.398;2023-03-23T06:17:01;11.40;99.90
26952;DHT22;14507;52.418;13.398;2023-03-23T06:19:27;11.30;99.90
26952;DHT22;14507;52.418;13.398;2023-03-23T06:21:54;11.40;99.90
26952;DHT22;14507;52.418;13.398;2023-03-23T06:24:20;11.30;99.90
26952;DHT22;14507;52.418;13.398;2023-03-23T06:26:46;11.30;99.90
26952;DHT22;14507;52.418;13.398;2023-03-23T06:29:13;11.30;99.90
26952;DHT22;14507;52.418;13.398;2023-03-23T06:31:44;11.30;99.90
26952;DHT22;14507;52.418;13.398;2023-03-23T06:34:10;11.20;99.90
26952;DHT22;14507;52.418;13.398;2023-03-23T06:36:37;11.20;99.90
26952;DHT22;14507;52.418;13.398;2023-03-23T06:39:04;11.20;99.90
26952;DHT22;14507;52.418;13.398;2023-03-23T06:41:33;11.20;99.90
26952;DHT22;14507;52.418;13.398;2023-03-23T06:44:00;11.20;99.90
26952;DHT22;14507;52.418;13.398;2023-03-23T06:46:26;11.20;99.90
26952;DHT22;14507;52.418;13.398;2023-03-23T06:48:53;11.20;99.90
26952;DHT22;14507;52.418;13.398;2023-03-23T06:51:18;11.10;99.90
26952;DHT22;14507;52.418;13.398;2023-03-23T06:53:44;11.20;99.90
26952;DHT22;14507;52.418;13.398;2023-03-23T06:56:10;11.20;99.90
26952;DHT22;14507;52.418;13.398;2023-03-23T06:58:37;11.20;99.90
26952;DHT22;14507;52.418;13.398;2023-03-23T07:01:03;11.20;99.90
26952;DHT22;14507;52.418;13.398;2023-03-23T07:03:29;11.30;99.90
26952;DHT22;14507;52.418;13.398;2023-03-23T07:05:56;11.30;99.90
26952;DHT22;14507;52.418;13.398;2023-03-23T07:08:22;11.30;99.90
26952;DHT22;14507;52.418;13.398;2023-03-23T07:10:50;11.40;99.90
26952;DHT22;14507;52.418;13.398;2023-03-23T07:13:17;11.40;99.90
26952;DHT22;14507;52.418;13.398;2023-03-23T07:15:43;11.40;99.90
26952;DHT22;14507;52.418;13.398;2023-03-23T07:18:09;11.40;99.90
26952;DHT22;14507;52.418;13.398;2023-03-23T07:20:35;11.40;99.90
26952;DHT22;14507;52.418;13.398;2023-03-23T07:23:02;11.40;99.90
26952;DHT22;14507;52.418;13.398;2023-03-23T07:25:31;11.30;99.90
26952;DHT22;14507;52.418;13.398;2023-03-23T07:27:56;11.30;99.90
26952;DHT22;14507;52.418;13.398;2023-03-23T07:30:22;11.40;99.90
26952;DHT22;14507;52.418;13.398;2023-03-23T07:32:48;11.40;99.90
26952;DHT22;14507;52.418;13.398;2023-03-23T07:35:13;11.40;99.90
26952;DHT22;14507;52.418;13.398;2023-03-23T07:37:39;11.40;99.90
26952;DHT22;14507;52.418;13.398;2023-03-23T07:40:05;11.40;99.90
26952;DHT22;14507;52.418;13.398;2023-03-23T07:42:36;11.40;99.90
26952;DHT22;14507;52.418;13.398;2023-03-23T07:45:02;11.40;99.90
26952;DHT22;14507;52.418;13.398;2023-03-23T07:47:28;11.40;99.90
26952;DHT22;14507;52.418;13.398;2023-03-23T07:49:53;11.40;99.90
26952;DHT22;14507;52.418;13.398;2023-03-23T07:52:19;11.50;99.90
26952;DHT22;14507;52.418;13.398;2023-03-23T07:54:46;11.50;99.90
26952;DHT22;14507;52.418;13.398;2023-03-23T07:57:11;11.50;99.90
26952;DHT22;14507;52.418;13.398;2023-03-23T07:59:37;11.50;99.90
26952;DHT22;14507;52.418;13.398;2023-03-23T08:02:03;11.60;99.90
26952;DHT22;14507;52.418;13.398;2023-03-23T08:04:29;11.60;99.90
26952;DHT22;14507;52.418;13.398;2023-03-23T08:06:54;11.60;99.90
26952;DHT22;14507;52.418;13.398;2023-03-23T08:09:21;11.60;99.90
26952;DHT22;14507;52.418;13.398;2023-03-23T08:11:47;11.60;99.90
26952;DHT22;14507;52.418;13.398;2023-03-23T08:14:13;11.70;99.90
26952;DHT22;14507;52.418;13.398;2023-03-23T08:16:39;11.70;99.90
26952;DHT22;14507;52.418;13.398;2023-03-23T08:19:04;11.70;99.90
26952;DHT22;14507;52.418;13.398;2023-03-23T08:21:30;11.80;99.90
26952;DHT22;14507;52.418;13.398;2023-03-23T08:23:56;11.80;99.90
26952;DHT22;14507;52.418;13.398;2023-03-23T08:26:21;11.90;99.90
26952;DHT22;14507;52.418;13.398;2023-03-23T08:28:47;11.90;99.90
26952;DHT22;14507;52.418;13.398;2023-03-23T08:31:14;12.00;99.90
26952;DHT22;14507;52.418;13.398;2023-03-23T08:33:40;12.00;99.90
26952;DHT22;14507;52.418;13.398;2023-03-23T08:36:07;12.10;99.90
26952;DHT22;14507;52.418;13.398;2023-03-23T08:38:34;12.10;99.90
26952;DHT22;14507;52.418;13.398;2023-03-23T08:41:04;12.10;99.90
26952;DHT22;14507;52.418;13.398;2023-03-23T08:43:31;12.10;99.90
26952;DHT22;14507;52.418;13.398;2023-03-23T08:45:58;12.10;99.90
26952;DHT22;14507;52.418;13.398;2023-03-23T08:48:24;12.10;99.90
26952;DHT22;14507;52.418;13.398;2023-03-23T08:50:50;12.20;99.90
26952;DHT22;14507;52.418;13.398;2023-03-23T08:53:17;12.20;99.90
26952;DHT22;14507;52.418;13.398;2023-03-23T08:55:43;12.20;99.90
26952;DHT22;14507;52.418;13.398;2023-03-23T08:58:09;12.30;99.90
26952;DHT22;14507;52.418;13.398;2023-03-23T09:00:35;12.30;99.90
26952;DHT22;14507;52.418;13.398;2023-03-23T09:03:01;12.30;99.90
26952;DHT22;14507;52.418;13.398;2023-03-23T09:05:28;12.40;99.90
26952;DHT22;14507;52.418;13.398;2023-03-23T09:07:55;12.50;99.90
26952;DHT22;14507;52.418;13.398;2023-03-23T09:10:25;12.60;99.90
26952;DHT22;14507;52.418;13.398;2023-03-23T09:12:53;12.90;99.90
26952;DHT22;14507;52.418;13.398;2023-03-23T09:15:19;13.20;99.90
26952;DHT22;14507;52.418;13.398;2023-03-23T09:17:47;13.20;99.90
26952;DHT22;14507;52.418;13.398;2023-03-23T09:20:15;13.20;99.90
26952;DHT22;14507;52.418;13.398;2023-03-23T09:22:42;13.20;99.90
26952;DHT22;14507;52.418;13.398;2023-03-23T09:25:11;13.20;99.90
26952;DHT22;14507;52.418;13.398;2023-03-23T09:27:37;13.30;99.90
26952;DHT22;14507;52.418;13.398;2023-03-23T09:30:10;13.30;99.90
26952;DHT22;14507;52.418;13.398;2023-03-23T09:32:37;13.40;99.90
26952;DHT22;14507;52.418;13.398;2023-03-23T09:35:05;13.30;99.90
26952;DHT22;14507;52.418;13.398;2023-03-23T09:37:37;13.30;99.90
26952;DHT22;14507;52.418;13.398;2023-03-23T09:40:04;13.30;99.90
26952;DHT22;14507;52.418;13.398;2023-03-23T09:43:06;13.40;99.90
26952;DHT22;14507;52.418;13.398;2023-03-23T09:53:51;14.70;99.90
26952;DHT22;14507;52.418;13.398;2023-03-23T09:56:19;15.00;99.90
26952;DHT22;14507;52.418;13.398;2023-03-23T09:58:56;15.10;99.90
26952;DHT22;14507;52.418;13.398;2023-03-23T10:01:45;15.20;99.90
26952;DHT22;14507;52.418;13.398;2023-03-23T10:06:50;15.10;99.90
26952;DHT22;14507;52.418;13.398;2023-03-23T10:09:18;15.00;99.90
26952;DHT22;14507;52.418;13.398;2023-03-23T10:18:00;14.60;99.90
26952;DHT22;14507;52.418;13.398;2023-03-23T10:20:48;14.60;99.90
26952;DHT22;14507;52.418;13.398;2023-03-23T10:29:21;14.60;99.90
26952;DHT22;14507;52.418;13.398;2023-03-23T10:31:59;14.60;99.90
26952;DHT22;14507;52.418;13.398;2023-03-23T10:34:34;14.60;99.90
26952;DHT22;14507;52.418;13.398;2023-03-23T10:37:20;14.70;99.90
26952;DHT22;14507;52.418;13.398;2023-03-23T10:39:55;14.70;99.90
26952;DHT22;14507;52.418;13.398;2023-03-23T10:42:33;14.80;99.90
26952;DHT22;14507;52.418;13.398;2023-03-23T10:45:10;14.90;99.90
26952;DHT22;14507;52.418;13.398;2023-03-23T10:47:38;15.00;99.90
26952;DHT22;14507;52.418;13.398;2023-03-23T10:50:12;15.00;99.90
26952;DHT22;14507;52.418;13.398;2023-03-23T10:52:41;15.00;99.90
26952;DHT22;14507;52.418;13.398;2023-03-23T10:55:17;15.00;99.90
26952;DHT22;14507;52.418;13.398;2023-03-23T10:57:46;14.90;99.90
26952;DHT22;14507;52.418;13.398;2023-03-23T11:00:21;14.80;99.90
26952;DHT22;14507;52.418;13.398;2023-03-23T11:05:32;14.80;99.90
26952;DHT22;14507;52.418;13.398;2023-03-23T11:08:00;14.80;99.90
26952;DHT22;14507;52.418;13.398;2023-03-23T11:10:35;14.70;99.90
26952;DHT22;14507;52.418;13.398;2023-03-23T11:13:01;14.70;99.90
26952;DHT22;14507;52.418;13.398;2023-03-23T11:15:36;14.70;99.90
26952;DHT22;14507;52.418;13.398;2023-03-23T11:18:10;14.70;99.90
26952;DHT22;14507;52.418;13.398;2023-03-23T11:20:38;14.70;99.90
26952;DHT22;14507;52.418;13.398;2023-03-23T11:23:32;14.80;99.90
26952;DHT22;14507;52.418;13.398;2023-03-23T11:28:29;14.80;99.90
26952;DHT22;14507;52.418;13.398;2023-03-23T11:30:58;14.80;99.90
26952;DHT22;14507;52.418;13.398;2023-03-23T11:33:25;14.90;99.90
26952;DHT22;14507;52.418;13.398;2023-03-23T11:35:52;14.90;99.90
26952;DHT22;14507;52.418;13.398;2023-03-23T11:38:19;15.00;99.90
26952;DHT22;14507;52.418;13.398;2023-03-23T11:40:51;15.00;99.90
26952;DHT22;14507;52.418;13.398;2023-03-23T11:43:21;15.00;99.90
26952;DHT22;14507;52.418;13.398;2023-03-23T11:48:57;15.20;99.90
26952;DHT22;14507;52.418;13.398;2023-03-23T11:51:54;15.30;99.90
26952;DHT22;14507;52.418;13.398;2023-03-23T11:54:34;15.40;99.90
26952;DHT22;14507;52.418;13.398;2023-03-23T11:57:07;15.40;99.90
26952;DHT22;14507;52.418;13.398;2023-03-23T11:59:35;15.50;99.90
26952;DHT22;14507;52.418;13.398;2023-03-23T12:21:53;15.80;99.90
26952;DHT22;14507;52.418;13.398;2023-03-23T12:24:34;15.80;99.90
26952;DHT22;14507;52.418;13.398;2023-03-23T12:27:27;15.90;99.90
26952;DHT22;14507;52.418;13.398;2023-03-23T12:30:13;15.80;99.90
26952;DHT22;14507;52.418;13.398;2023-03-23T12:43:52;15.90;99.90
26952;DHT22;14507;52.418;13.398;2023-03-23T12:49:32;16.00;99.90
26952;DHT22;14507;52.418;13.398;2023-03-23T12:52:48;15.90;99.90
26952;DHT22;14507;52.418;13.398;2023-03-23T12:55:04;16.00;99.90
26952;DHT22;14507;52.418;13.398;2023-03-23T12:57:44;16.00;99.90
26952;DHT22;14507;52.418;13.398;2023-03-23T13:00:48;16.10;99.90
26952;DHT22;14507;52.418;13.398;2023-03-23T13:03:37;16.10;99.90
26952;DHT22;14507;52.418;13.398;2023-03-23T13:08:47;16.20;99.90
26952;DHT22;14507;52.418;13.398;2023-03-23T13:11:25;16.30;99.90
26952;DHT22;14507;52.418;13.398;2023-03-23T13:13:55;16.40;99.90
26952;DHT22;14507;52.418;13.398;2023-03-23T13:19:25;16.70;99.90
26952;DHT22;14507;52.418;13.398;2023-03-23T13:22:01;16.80;99.90
26952;DHT22;14507;52.418;13.398;2023-03-23T13:24:29;16.80;99.90
26952;DHT22;14507;52.418;13.398;2023-03-23T13:26:58;16.80;99.90
26952;DHT22;14507;52.418;13.398;2023-03-23T13:29:27;16.80;99.90
26952;DHT22;14507;52.418;13.398;2023-03-23T13:32:17;16.70;99.90
26952;DHT22;14507;52.418;13.398;2023-03-23T13:34:46;16.80;99.90
26952;DHT22;14507;52.418;13.398;2023-03-23T13:42:51;16.70;99.90
26952;DHT22;14507;52.418;13.398;2023-03-23T13:45:22;16.80;99.90
26952;DHT22;14507;52.418;13.398;2023-03-23T13:47:48;16.80;99.90
26952;DHT22;14507;52.418;13.398;2023-03-23T13:55:38;16.90;99.40
26952;DHT22;14507;52.418;13.398;2023-03-23T14:03:17;17.00;99.70
26952;DHT22;14507;52.418;13.398;2023-03-23T14:18:51;16.50;99.60
26952;DHT22;14507;52.418;13.398;2023-03-23T14:24:24;16.40;99.90
26952;DHT22;14507;52.418;13.398;2023-03-23T14:26:52;16.40;99.90
26952;DHT22;14507;52.418;13.398;2023-03-23T14:29:19;16.40;99.90
26952;DHT22;14507;52.418;13.398;2023-03-23T14:31:47;16.30;99.90
26952;DHT22;14507;52.418;13.398;2023-03-23T14:34:16;16.20;99.90
26952;DHT22;14507;52.418;13.398;2023-03-23T14:36:43;16.20;99.90
26952;DHT22;14507;52.418;13.398;2023-03-23T14:39:18;16.10;99.90
26952;DHT22;14507;52.418;13.398;2023-03-23T14:41:45;16.10;99.90
26952;DHT22;14507;52.418;13.398;2023-03-23T14:44:15;16.00;99.90
26952;DHT22;14507;52.418;13.398;2023-03-23T14:46:43;15.90;99.90
26952;DHT22;14507;52.418;13.398;2023-03-23T14:49:16;15.90;99.90
26952;DHT22;14507;52.418;13.398;2023-03-23T14:51:51;15.80;99.90
26952;DHT22;14507;52.418;13.398;2023-03-23T14:54:25;15.80;99.90
26952;DHT22;14507;52.418;13.398;2023-03-23T14:56:51;15.70;99.90
26952;DHT22;14507;52.418;13.398;2023-03-23T14:59:17;15.60;99.90
26952;DHT22;14507;52.418;13.398;2023-03-23T15:01:43;15.60;99.90
26952;DHT22;14507;52.418;13.398;2023-03-23T15:06:42;15.50;99.90
26952;DHT22;14507;52.418;13.398;2023-03-23T15:09:14;15.50;99.90
26952;DHT22;14507;52.418;13.398;2023-03-23T15:11:41;15.70;99.90
26952;DHT22;14507;52.418;13.398;2023-03-23T15:14:19;15.80;99.90
26952;DHT22;14507;52.418;13.398;2023-03-23T15:16:53;15.80;99.90
26952;DHT22;14507;52.418;13.398;2023-03-23T15:19:25;15.90;99.90
26952;DHT22;14507;52.418;13.398;2023-03-23T15:21:54;16.00;99.90
26952;DHT22;14507;52.418;13.398;2023-03-23T15:24:38;16.00;99.90
26952;DHT22;14507;52.418;13.398;2023-03-23T15:27:14;16.00;99.90
26952;DHT22;14507;52.418;13.398;2023-03-23T15:29:55;16.00;99.90
26952;DHT22;14507;52.418;13.398;2023-03-23T15:32:30;16.00;99.90
26952;DHT22;14507;52.418;13.398;2023-03-23T15:34:57;16.10;99.90
26952;DHT22;14507;52.418;13.398;2023-03-23T15:37:31;16.10;99.90
26952;DHT22;14507;52.418;13.398;2023-03-23T15:39:58;16.20;99.90
26952;DHT22;14507;52.418;13.398;2023-03-23T15:42:31;16.20;99.90
26952;DHT22;14507;52.418;13.398;2023-03-23T15:47:46;16.20;99.90
26952;DHT22;14507;52.418;13.398;2023-03-23T15:50:16;16.20;99.70
26952;DHT22;14507;52.418;13.398;2023-03-23T15:52:42;16.10;99.60
26952;DHT22;14507;52.418;13.398;2023-03-23T15:55:29;16.10;98.70
26952;DHT22;14507;52.418;13.398;2023-03-23T15:57:56;16.10;99.20
26952;DHT22;14507;52.418;13.398;2023-03-23T16:00:25;16.00;99.30
26952;DHT22;14507;52.418;13.398;2023-03-23T16:02:55;16.00;99.50
26952;DHT22;14507;52.418;13.398;2023-03-23T16:05:22;15.90;99.70
26952;DHT22;14507;52.418;13.398;2023-03-23T16:07:48;15.90;99.90
26952;DHT22;14507;52.418;13.398;2023-03-23T16:10:17;15.80;99.90
26952;DHT22;14507;52.418;13.398;2023-03-23T16:12:44;15.80;99.90
26952;DHT22;14507;52.418;13.398;2023-03-23T16:15:11;15.80;99.90
26952;DHT22;14507;52.418;13.398;2023-03-23T16:17:37;15.70;99.90
26952;DHT22;14507;52.418;13.398;2023-03-23T16:20:14;15.70;99.90
26952;DHT22;14507;52.418;13.398;2023-03-23T16:22:40;15.70;99.90
26952;DHT22;14507;52.418;13.398;2023-03-23T16:25:06;15.70;99.90
26952;DHT22;14507;52.418;13.398;2023-03-23T16:27:32;15.60;99.90
26952;DHT22;14507;52.418;13.398;2023-03-23T16:29:58;15.60;99.90
26952;DHT22;14507;52.418;13.398;2023-03-23T16:32:25;15.60;99.90
26952;DHT22;14507;52.418;13.398;2023-03-23T16:34:51;15.60;99.90
26952;DHT22;14507;52.418;13.398;2023-03-23T16:37:17;15.60;99.90
26952;DHT22;14507;52.418;13.398;2023-03-23T16:39:42;15.60;99.90
26952;DHT22;14507;52.418;13.398;2023-03-23T16:42:08;15.60;99.90
26952;DHT22;14507;52.418;13.398;2023-03-23T16:44:34;15.50;99.90
26952;DHT22;14507;52.418;13.398;2023-03-23T16:46:59;15.50;99.90
26952;DHT22;14507;52.418;13.398;2023-03-23T16:49:25;15.50;99.90
26952;DHT22;14507;52.418;13.398;2023-03-23T16:51:51;15.50;99.90
26952;DHT22;14507;52.418;13.398;2023-03-23T16:54:16;15.40;99.90
26952;DHT22;14507;52.418;13.398;2023-03-23T16:56:42;15.40;99.90
26952;DHT22;14507;52.418;13.398;2023-03-23T16:59:11;15.40;99.90
26952;DHT22;14507;52.418;13.398;2023-03-23T17:01:37;15.40;99.90
26952;DHT22;14507;52.418;13.398;2023-03-23T17:04:03;15.30;99.90
26952;DHT22;14507;52.418;13.398;2023-03-23T17:06:29;15.20;99.90
26952;DHT22;14507;52.418;13.398;2023-03-23T17:08:54;15.20;99.90
26952;DHT22;14507;52.418;13.398;2023-03-23T17:11:20;15.20;99.90
26952;DHT22;14507;52.418;13.398;2023-03-23T17:13:46;15.20;99.90
26952;DHT22;14507;52.418;13.398;2023-03-23T17:16:12;15.20;99.90
26952;DHT22;14507;52.418;13.398;2023-03-23T17:18:38;15.10;99.90
26952;DHT22;14507;52.418;13.398;2023-03-23T17:21:03;15.10;99.90
26952;DHT22;14507;52.418;13.398;2023-03-23T17:23:29;15.10;99.90
26952;DHT22;14507;52.418;13.398;2023-03-23T17:25:55;15.10;99.90
26952;DHT22;14507;52.418;13.398;2023-03-23T17:28:21;15.00;99.90
26952;DHT22;14507;52.418;13.398;2023-03-23T17:30:46;14.90;99.90
26952;DHT22;14507;52.418;13.398;2023-03-23T17:33:12;14.90;99.90
26952;DHT22;14507;52.418;13.398;2023-03-23T17:35:38;14.90;99.90
26952;DHT22;14507;52.418;13.398;2023-03-23T17:38:04;14.80;99.90